sensor_id;sensor_type;location;lat;lon;timestamp;pressure;altitude;pressure_sealevel;temperature;humidity
57610;BME280;43435;46.186;9.024;2023-07-30T10:05:33;98317.81;;;26.31;52.20
57610;BME280;43435;46.186;9.024;2023-07-30T10:08:02;98314.13;;;26.35;51.28
57610;BME280;43435;46.186;9.024;2023-07-30T10:10:29;98314.28;;;26.53;49.07
57610;BME280;43435;46.186;9.024;2023-07-30T10:12:55;98307.81;;;26.48;49.94
57610;BME280;43435;46.186;9.024;2023-07-30T10:15:23;98300.97;;;26.60;48.70
57610;BME280;43435;46.186;9.024;2023-07-30T10:17:49;98301.09;;;26.55;49.95
57610;BME280;43435;46.186;9.024;2023-07-30T10:20:24;98292.50;;;26.70;50.75
57610;BME280;43435;46.186;9.024;2023-07-30T10:22:53;98295.28;;;26.79;50.48
57610;BME280;43435;46.186;9.024;2023-07-30T10:28:03;98287.25;;;26.91;52.71
57610;BME280;43435;46.186;9.024;2023-07-30T10:30:32;98289.06;;;26.95;51.76
57610;BME280;43435;46.186;9.024;2023-07-30T10:32:58;98283.56;;;26.87;49.95
57610;BME280;43435;46.186;9.024;2023-07-30T10:38:21;98280.91;;;26.73;48.54
57610;BME280;43435;46.186;9.024;2023-07-30T10:43:34;98300.38;;;26.71;49.56
57610;BME280;43435;46.186;9.024;2023-07-30T10:45:59;98295.13;;;26.84;48.60
57610;BME280;43435;46.186;9.024;2023-07-30T10:48:34;98299.34;;;26.90;49.91
57610;BME280;43435;46.186;9.024;2023-07-30T10:51:00;98297.69;;;26.80;48.54
57610;BME280;43435;46.186;9.024;2023-07-30T10:53:25;98295.97;;;26.62;51.24
57610;BME280;43435;46.186;9.024;2023-07-30T10:55:51;98295.63;;;26.55;51.99
57610;BME280;43435;46.186;9.024;2023-07-30T10:58:17;98291.03;;;26.41;52.74
57610;BME280;43435;46.186;9.024;2023-07-30T11:00:42;98292.69;;;26.29;51.95
57610;BME280;43435;46.186;9.024;2023-07-30T11:03:08;98289.69;;;26.92;44.46
57610;BME280;43435;46.186;9.024;2023-07-30T11:05:33;98292.44;;;26.92;46.67
57610;BME280;43435;46.186;9.024;2023-07-30T11:07:58;98293.03;;;26.81;47.41
57610;BME280;43435;46.186;9.024;2023-07-30T11:10:23;98287.31;;;27.00;47.64
57610;BME280;43435;46.186;9.024;2023-07-30T11:12:49;98281.75;;;26.73;50.59
57610;BME280;43435;46.186;9.024;2023-07-30T12:49:25;98191.88;;;29.26;52.81
57610;BME280;43435;46.186;9.024;2023-07-30T12:51:50;98185.72;;;29.50;51.57
57610;BME280;43435;46.186;9.024;2023-07-30T12:54:16;98188.66;;;29.45;51.22
57610;BME280;43435;46.186;9.024;2023-07-30T12:56:42;98184.53;;;29.59;50.96
57610;BME280;43435;46.186;9.024;2023-07-30T12:59:07;98187.78;;;29.53;51.00
57610;BME280;43435;46.186;9.024;2023-07-30T13:01:32;98191.50;;;29.57;49.95
57610;BME280;43435;46.186;9.024;2023-07-30T13:03:57;98188.91;;;29.94;48.56
57610;BME280;43435;46.186;9.024;2023-07-30T13:06:22;98197.34;;;29.89;49.67
57610;BME280;43435;46.186;9.024;2023-07-30T13:08:48;98181.66;;;30.22;46.04
57610;BME280;43435;46.186;9.024;2023-07-30T13:11:13;98186.28;;;30.43;46.71
57610;BME280;43435;46.186;9.024;2023-07-30T13:13:38;98191.78;;;30.55;45.67
57610;BME280;43435;46.186;9.024;2023-07-30T13:16:03;98180.13;;;30.58;44.30
57610;BME280;43435;46.186;9.024;2023-07-30T13:18:29;98189.28;;;30.50;47.21
57610;BME280;43435;46.186;9.024;2023-07-30T13:20:54;98184.75;;;30.78;43.80
57610;BME280;43435;46.186;9.024;2023-07-30T13:23:19;98179.44;;;30.98;42.71
57610;BME280;43435;46.186;9.024;2023-07-30T13:25:44;98179.44;;;30.98;42.25
57610;BME280;43435;46.186;9.024;2023-07-30T13:28:10;98173.47;;;30.96;43.18
57610;BME280;43435;46.186;9.024;2023-07-30T13:30:35;98176.13;;;31.04;42.12
57610;BME280;43435;46.186;9.024;2023-07-30T13:33:00;98169.88;;;31.08;42.50
57610;BME280;43435;46.186;9.024;2023-07-30T13:35:25;98176.78;;;31.14;42.97
